sensor_id;sensor_type;location;lat;lon;timestamp;pressure;altitude;pressure_sealevel;temperature;humidity
60307;BME280;46155;52.364;6.580;2022-12-29T04:01:32;99617.19;;;9.01;100.00
60307;BME280;46155;52.364;6.580;2022-12-29T04:03:58;99609.47;;;9.04;100.00
60307;BME280;46155;52.364;6.580;2022-12-29T04:06:24;99593.63;;;9.01;100.00
60307;BME280;46155;52.364;6.580;2022-12-29T04:08:49;99608.66;;;9.05;100.00
60307;BME280;46155;52.364;6.580;2022-12-29T04:11:15;99627.94;;;9.07;100.00
60307;BME280;46155;52.364;6.580;2022-12-29T04:13:40;99612.38;;;9.10;100.00
60307;BME280;46155;52.364;6.580;2022-12-29T04:16:06;99611.41;;;9.08;100.00
60307;BME280;46155;52.364;6.580;2022-12-29T04:18:32;99605.91;;;9.02;100.00
60307;BME280;46155;52.364;6.580;2022-12-29T04:20:57;99606.03;;;9.05;100.00
60307;BME280;46155;52.364;6.580;2022-12-29T04:23:26;99589.81;;;8.94;100.00
60307;BME280;46155;52.364;6.580;2022-12-29T04:25:51;99595.44;;;9.02;100.00
60307;BME280;46155;52.364;6.580;2022-12-29T04:28:16;99606.78;;;9.02;100.00
60307;BME280;46155;52.364;6.580;2022-12-29T04:30:45;99625.03;;;9.01;100.00
60307;BME280;46155;52.364;6.580;2022-12-29T04:33:11;99629.22;;;8.97;100.00
60307;BME280;46155;52.364;6.580;2022-12-29T04:35:36;99624.88;;;8.98;100.00
60307;BME280;46155;52.364;6.580;2022-12-29T04:38:02;99629.44;;;9.02;100.00
60307;BME280;46155;52.364;6.580;2022-12-29T04:40:27;99628.53;;;9.01;100.00
60307;BME280;46155;52.364;6.580;2022-12-29T04:42:53;99618.00;;;9.00;100.00
60307;BME280;46155;52.364;6.580;2022-12-29T04:45:18;99626.97;;;9.05;100.00
60307;BME280;46155;52.364;6.580;2022-12-29T04:47:43;99618.31;;;9.06;100.00
60307;BME280;46155;52.364;6.580;2022-12-29T04:50:09;99615.84;;;9.09;100.00
60307;BME280;46155;52.364;6.580;2022-12-29T04:52:34;99623.69;;;9.09;100.00
60307;BME280;46155;52.364;6.580;2022-12-29T04:55:00;99623.69;;;9.09;100.00
60307;BME280;46155;52.364;6.580;2022-12-29T04:57:25;99617.78;;;9.13;100.00
60307;BME280;46155;52.364;6.580;2022-12-29T04:59:50;99624.72;;;9.12;100.00
60307;BME280;46155;52.364;6.580;2022-12-29T05:02:16;99628.31;;;9.15;100.00
60307;BME280;46155;52.364;6.580;2022-12-29T05:04:41;99630.88;;;9.13;100.00
60307;BME280;46155;52.364;6.580;2022-12-29T05:07:07;99636.38;;;9.19;100.00
60307;BME280;46155;52.364;6.580;2022-12-29T05:09:33;99634.56;;;9.18;100.00
60307;BME280;46155;52.364;6.580;2022-12-29T05:11:58;99630.19;;;9.17;100.00
60307;BME280;46155;52.364;6.580;2022-12-29T05:14:23;99634.66;;;9.20;100.00
60307;BME280;46155;52.364;6.580;2022-12-29T05:16:49;99645.66;;;9.30;100.00
60307;BME280;46155;52.364;6.580;2022-12-29T05:19:14;99632.63;;;9.32;100.00
60307;BME280;46155;52.364;6.580;2022-12-29T05:21:39;99646.59;;;9.33;100.00
60307;BME280;46155;52.364;6.580;2022-12-29T05:24:05;99654.69;;;9.37;100.00
60307;BME280;46155;52.364;6.580;2022-12-29T05:26:30;99657.16;;;9.34;100.00
60307;BME280;46155;52.364;6.580;2022-12-29T05:28:55;99649.22;;;9.33;100.00
60307;BME280;46155;52.364;6.580;2022-12-29T05:31:21;99641.97;;;9.27;100.00
60307;BME280;46155;52.364;6.580;2022-12-29T05:33:46;99652.38;;;9.25;100.00
60307;BME280;46155;52.364;6.580;2022-12-29T05:36:11;99645.19;;;9.21;100.00
60307;BME280;46155;52.364;6.580;2022-12-29T05:38:37;99639.88;;;9.20;100.00
60307;BME280;46155;52.364;6.580;2022-12-29T05:41:03;99640.66;;;9.17;100.00
60307;BME280;46155;52.364;6.580;2022-12-29T05:43:28;99639.69;;;9.15;100.00
60307;BME280;46155;52.364;6.580;2022-12-29T05:45:54;99642.50;;;9.20;100.00
60307;BME280;46155;52.364;6.580;2022-12-29T05:48:20;99668.63;;;9.18;100.00
60307;BME280;46155;52.364;6.580;2022-12-29T05:50:49;99673.19;;;9.22;100.00
60307;BME280;46155;52.364;6.580;2022-12-29T05:53:14;99666.69;;;9.14;100.00
60307;BME280;46155;52.364;6.580;2022-12-29T05:55:39;99678.94;;;9.15;100.00
60307;BME280;46155;52.364;6.580;2022-12-29T05:58:05;99683.38;;;9.16;100.00
60307;BME280;46155;52.364;6.580;2022-12-29T06:00:30;99681.56;;;9.15;100.00
60307;BME280;46155;52.364;6.580;2022-12-29T06:02:55;99682.69;;;9.20;100.00
60307;BME280;46155;52.364;6.580;2022-12-29T06:05:21;99692.13;;;9.17;100.00
60307;BME280;46155;52.364;6.580;2022-12-29T06:07:46;99683.31;;;9.15;100.00
60307;BME280;46155;52.364;6.580;2022-12-29T06:10:12;99706.13;;;9.17;100.00
60307;BME280;46155;52.364;6.580;2022-12-29T06:12:37;99698.94;;;9.13;100.00
60307;BME280;46155;52.364;6.580;2022-12-29T06:15:03;99702.09;;;9.06;100.00
60307;BME280;46155;52.364;6.580;2022-12-29T06:17:29;99707.16;;;9.03;100.00
60307;BME280;46155;52.364;6.580;2022-12-29T06:19:54;99710.59;;;9.02;100.00
60307;BME280;46155;52.364;6.580;2022-12-29T06:22:19;99699.16;;;9.00;100.00
60307;BME280;46155;52.364;6.580;2022-12-29T06:24:45;99708.81;;;9.01;100.00
60307;BME280;46155;52.364;6.580;2022-12-29T06:27:10;99706.94;;;8.98;100.00
60307;BME280;46155;52.364;6.580;2022-12-29T06:29:36;99707.59;;;8.94;100.00
60307;BME280;46155;52.364;6.580;2022-12-29T06:32:03;99715.84;;;9.02;100.00
60307;BME280;46155;52.364;6.580;2022-12-29T06:34:28;99716.59;;;8.99;100.00
60307;BME280;46155;52.364;6.580;2022-12-29T06:36:53;99715.66;;;8.99;100.00
60307;BME280;46155;52.364;6.580;2022-12-29T06:39:19;99728.09;;;9.03;100.00
60307;BME280;46155;52.364;6.580;2022-12-29T06:41:44;99728.16;;;9.04;100.00
60307;BME280;46155;52.364;6.580;2022-12-29T06:44:10;99733.50;;;9.06;100.00
60307;BME280;46155;52.364;6.580;2022-12-29T06:46:35;99725.66;;;9.06;100.00
60307;BME280;46155;52.364;6.580;2022-12-29T06:49:00;99726.25;;;9.00;100.00
60307;BME280;46155;52.364;6.580;2022-12-29T06:51:25;99739.91;;;8.94;100.00
60307;BME280;46155;52.364;6.580;2022-12-29T06:53:51;99737.31;;;8.94;100.00
60307;BME280;46155;52.364;6.580;2022-12-29T06:56:16;99739.75;;;8.91;100.00
60307;BME280;46155;52.364;6.580;2022-12-29T06:58:41;99725.63;;;8.88;100.00
60307;BME280;46155;52.364;6.580;2022-12-29T07:01:07;99741.53;;;8.92;100.00
60307;BME280;46155;52.364;6.580;2022-12-29T07:03:32;99745.16;;;8.94;100.00
60307;BME280;46155;52.364;6.580;2022-12-29T07:05:57;99746.84;;;8.94;100.00
60307;BME280;46155;52.364;6.580;2022-12-29T07:08:23;99747.94;;;8.98;100.00
60307;BME280;46155;52.364;6.580;2022-12-29T07:10:49;99754.84;;;8.97;100.00
60307;BME280;46155;52.364;6.580;2022-12-29T07:13:14;99752.03;;;8.92;100.00
60307;BME280;46155;52.364;6.580;2022-12-29T07:15:39;99751.88;;;8.89;100.00
60307;BME280;46155;52.364;6.580;2022-12-29T07:18:05;99757.25;;;8.92;100.00
60307;BME280;46155;52.364;6.580;2022-12-29T07:20:31;99746.63;;;8.89;100.00
60307;BME280;46155;52.364;6.580;2022-12-29T07:22:57;99753.50;;;8.87;100.00
60307;BME280;46155;52.364;6.580;2022-12-29T07:25:22;99759.16;;;8.78;100.00
60307;BME280;46155;52.364;6.580;2022-12-29T07:27:47;99753.78;;;8.75;100.00
60307;BME280;46155;52.364;6.580;2022-12-29T07:30:13;99756.91;;;8.68;100.00
60307;BME280;46155;52.364;6.580;2022-12-29T07:32:39;99758.38;;;8.63;100.00
60307;BME280;46155;52.364;6.580;2022-12-29T07:35:04;99749.50;;;8.59;100.00
60307;BME280;46155;52.364;6.580;2022-12-29T07:37:30;99765.84;;;8.55;100.00
60307;BME280;46155;52.364;6.580;2022-12-29T07:39:55;99765.75;;;8.54;100.00
60307;BME280;46155;52.364;6.580;2022-12-29T07:42:20;99770.91;;;8.52;100.00
60307;BME280;46155;52.364;6.580;2022-12-29T07:44:46;99758.50;;;8.48;100.00
60307;BME280;46155;52.364;6.580;2022-12-29T07:47:11;99753.56;;;8.54;100.00
60307;BME280;46155;52.364;6.580;2022-12-29T07:49:36;99748.34;;;8.54;100.00
60307;BME280;46155;52.364;6.580;2022-12-29T07:52:01;99757.56;;;8.48;100.00
60307;BME280;46155;52.364;6.580;2022-12-29T07:54:27;99765.53;;;8.49;100.00
60307;BME280;46155;52.364;6.580;2022-12-29T07:56:53;99742.91;;;8.35;100.00
60307;BME280;46155;52.364;6.580;2022-12-29T07:59:19;99775.22;;;8.52;100.00
60307;BME280;46155;52.364;6.580;2022-12-29T08:01:44;99782.84;;;8.47;100.00
60307;BME280;46155;52.364;6.580;2022-12-29T08:04:09;99792.41;;;8.47;100.00
60307;BME280;46155;52.364;6.580;2022-12-29T08:06:35;99791.50;;;8.46;100.00
60307;BME280;46155;52.364;6.580;2022-12-29T08:09:00;99795.56;;;8.41;100.00
60307;BME280;46155;52.364;6.580;2022-12-29T08:11:26;99812.06;;;8.40;100.00
60307;BME280;46155;52.364;6.580;2022-12-29T08:13:52;99789.75;;;8.30;100.00
60307;BME280;46155;52.364;6.580;2022-12-29T08:16:17;99819.97;;;8.25;100.00
60307;BME280;46155;52.364;6.580;2022-12-29T08:18:43;99794.41;;;8.19;100.00
60307;BME280;46155;52.364;6.580;2022-12-29T08:21:09;99796.84;;;8.16;100.00
60307;BME280;46155;52.364;6.580;2022-12-29T08:23:34;99807.72;;;8.07;100.00
60307;BME280;46155;52.364;6.580;2022-12-29T08:26:02;99775.47;;;8.07;100.00
60307;BME280;46155;52.364;6.580;2022-12-29T08:28:28;99792.28;;;7.96;100.00
60307;BME280;46155;52.364;6.580;2022-12-29T08:30:57;99802.81;;;7.97;100.00
60307;BME280;46155;52.364;6.580;2022-12-29T08:33:28;99795.84;;;7.98;100.00
60307;BME280;46155;52.364;6.580;2022-12-29T08:36:01;99804.50;;;7.97;100.00
60307;BME280;46155;52.364;6.580;2022-12-29T08:38:28;99808.13;;;7.99;100.00
60307;BME280;46155;52.364;6.580;2022-12-29T08:40:54;99813.25;;;7.97;100.00
60307;BME280;46155;52.364;6.580;2022-12-29T08:43:19;99809.94;;;8.00;100.00
60307;BME280;46155;52.364;6.580;2022-12-29T08:45:44;99815.31;;;8.03;100.00
60307;BME280;46155;52.364;6.580;2022-12-29T08:48:10;99812.06;;;8.07;100.00
60307;BME280;46155;52.364;6.580;2022-12-29T08:50:35;99809.84;;;8.15;100.00
60307;BME280;46155;52.364;6.580;2022-12-29T08:53:00;99795.16;;;8.17;100.00
60307;BME280;46155;52.364;6.580;2022-12-29T08:55:26;99803.00;;;8.17;100.00
60307;BME280;46155;52.364;6.580;2022-12-29T08:57:51;99796.38;;;8.23;100.00
60307;BME280;46155;52.364;6.580;2022-12-29T09:00:17;99796.22;;;8.37;100.00
60307;BME280;46155;52.364;6.580;2022-12-29T09:02:43;99784.38;;;8.27;100.00
60307;BME280;46155;52.364;6.580;2022-12-29T09:05:08;99789.69;;;8.28;100.00
60307;BME280;46155;52.364;6.580;2022-12-29T09:07:34;99792.28;;;8.28;100.00
60307;BME280;46155;52.364;6.580;2022-12-29T09:10:00;99775.16;;;8.34;100.00
60307;BME280;46155;52.364;6.580;2022-12-29T09:12:25;99782.03;;;8.48;100.00
60307;BME280;46155;52.364;6.580;2022-12-29T09:14:50;99773.63;;;8.54;100.00
60307;BME280;46155;52.364;6.580;2022-12-29T09:17:16;99773.63;;;8.54;100.00
60307;BME280;46155;52.364;6.580;2022-12-29T09:19:59;99788.22;;;8.50;100.00
60307;BME280;46155;52.364;6.580;2022-12-29T09:22:24;99779.00;;;8.57;100.00
60307;BME280;46155;52.364;6.580;2022-12-29T09:24:50;99789.38;;;8.55;100.00
60307;BME280;46155;52.364;6.580;2022-12-29T09:27:15;99788.06;;;8.64;100.00
60307;BME280;46155;52.364;6.580;2022-12-29T09:29:40;99794.13;;;8.63;100.00
60307;BME280;46155;52.364;6.580;2022-12-29T09:32:06;99783.34;;;8.56;100.00
60307;BME280;46155;52.364;6.580;2022-12-29T09:34:31;99808.16;;;8.65;100.00
60307;BME280;46155;52.364;6.580;2022-12-29T09:36:56;99796.22;;;8.70;100.00
60307;BME280;46155;52.364;6.580;2022-12-29T09:39:22;99795.41;;;8.71;100.00
60307;BME280;46155;52.364;6.580;2022-12-29T09:42:29;99820.94;;;8.75;100.00
60307;BME280;46155;52.364;6.580;2022-12-29T09:47:26;99825.50;;;8.79;100.00
60307;BME280;46155;52.364;6.580;2022-12-29T09:50:22;99831.72;;;8.81;100.00
60307;BME280;46155;52.364;6.580;2022-12-29T09:52:53;99819.19;;;8.75;100.00
60307;BME280;46155;52.364;6.580;2022-12-29T09:55:23;99829.59;;;8.74;100.00
60307;BME280;46155;52.364;6.580;2022-12-29T09:58:05;99822.91;;;8.79;100.00
60307;BME280;46155;52.364;6.580;2022-12-29T10:00:43;99819.13;;;8.74;100.00
60307;BME280;46155;52.364;6.580;2022-12-29T10:03:18;99820.34;;;8.81;100.00
60307;BME280;46155;52.364;6.580;2022-12-29T10:11:33;99822.31;;;8.85;100.00
60307;BME280;46155;52.364;6.580;2022-12-29T10:17:03;99831.69;;;8.98;100.00
60307;BME280;46155;52.364;6.580;2022-12-29T10:20:02;99831.69;;;8.98;100.00
60307;BME280;46155;52.364;6.580;2022-12-29T10:22:52;99832.81;;;9.03;100.00
60307;BME280;46155;52.364;6.580;2022-12-29T10:25:24;99843.47;;;9.06;100.00
60307;BME280;46155;52.364;6.580;2022-12-29T10:27:53;99832.81;;;9.03;100.00
60307;BME280;46155;52.364;6.580;2022-12-29T10:30:20;99848.44;;;9.01;100.00
60307;BME280;46155;52.364;6.580;2022-12-29T10:32:50;99834.06;;;8.93;100.00
60307;BME280;46155;52.364;6.580;2022-12-29T10:35:23;99829.97;;;8.82;100.00
60307;BME280;46155;52.364;6.580;2022-12-29T10:38:02;99847.91;;;8.90;100.00
60307;BME280;46155;52.364;6.580;2022-12-29T10:40:37;99841.53;;;8.85;100.00
60307;BME280;46155;52.364;6.580;2022-12-29T10:43:17;99849.22;;;8.82;100.00
60307;BME280;46155;52.364;6.580;2022-12-29T10:45:46;99857.88;;;8.81;100.00
60307;BME280;46155;52.364;6.580;2022-12-29T10:48:20;99854.59;;;8.85;100.00
60307;BME280;46155;52.364;6.580;2022-12-29T10:50:47;99874.72;;;8.86;100.00
60307;BME280;46155;52.364;6.580;2022-12-29T10:53:21;99860.72;;;8.86;100.00
60307;BME280;46155;52.364;6.580;2022-12-29T10:55:49;99861.31;;;8.80;100.00
60307;BME280;46155;52.364;6.580;2022-12-29T10:58:15;99877.66;;;8.92;100.00
60307;BME280;46155;52.364;6.580;2022-12-29T11:00:42;99869.16;;;8.96;100.00
60307;BME280;46155;52.364;6.580;2022-12-29T11:06:00;99878.88;;;8.99;100.00
60307;BME280;46155;52.364;6.580;2022-12-29T11:08:33;99881.28;;;8.94;100.00
60307;BME280;46155;52.364;6.580;2022-12-29T11:11:06;99882.16;;;8.95;100.00
60307;BME280;46155;52.364;6.580;2022-12-29T11:13:34;99895.91;;;8.91;100.00
60307;BME280;46155;52.364;6.580;2022-12-29T11:16:00;99899.50;;;8.93;100.00
60307;BME280;46155;52.364;6.580;2022-12-29T11:18:32;99898.59;;;8.92;100.00
60307;BME280;46155;52.364;6.580;2022-12-29T11:21:03;99898.28;;;8.86;100.00
60307;BME280;46155;52.364;6.580;2022-12-29T11:23:38;99885.84;;;8.82;100.00
60307;BME280;46155;52.364;6.580;2022-12-29T11:28:36;99906.38;;;8.91;100.00
60307;BME280;46155;52.364;6.580;2022-12-29T11:31:04;99906.97;;;8.85;100.00
60307;BME280;46155;52.364;6.580;2022-12-29T11:33:31;99912.91;;;8.83;100.00
60307;BME280;46155;52.364;6.580;2022-12-29T11:35:58;99917.75;;;8.75;100.00
60307;BME280;46155;52.364;6.580;2022-12-29T11:38:35;99931.66;;;8.74;100.00
60307;BME280;46155;52.364;6.580;2022-12-29T11:41:02;99928.22;;;8.75;100.00
60307;BME280;46155;52.364;6.580;2022-12-29T11:43:38;99942.94;;;8.73;100.00
60307;BME280;46155;52.364;6.580;2022-12-29T11:46:06;99944.00;;;8.76;100.00
60307;BME280;46155;52.364;6.580;2022-12-29T11:48:38;99949.97;;;8.74;100.00
60307;BME280;46155;52.364;6.580;2022-12-29T11:51:04;99948.00;;;8.70;100.00
60307;BME280;46155;52.364;6.580;2022-12-29T11:53:42;99952.75;;;8.77;100.00
60307;BME280;46155;52.364;6.580;2022-12-29T11:56:11;99955.19;;;8.74;100.00
60307;BME280;46155;52.364;6.580;2022-12-29T11:58:38;99935.41;;;8.63;100.00
60307;BME280;46155;52.364;6.580;2022-12-29T12:01:07;99964.94;;;8.76;100.00
60307;BME280;46155;52.364;6.580;2022-12-29T12:03:38;99974.50;;;8.76;100.00
60307;BME280;46155;52.364;6.580;2022-12-29T12:06:07;99957.56;;;8.69;100.00
60307;BME280;46155;52.364;6.580;2022-12-29T12:08:40;99972.34;;;8.69;100.00
60307;BME280;46155;52.364;6.580;2022-12-29T12:11:12;99991.50;;;8.68;100.00
60307;BME280;46155;52.364;6.580;2022-12-29T12:14:08;99989.94;;;8.71;100.00
60307;BME280;46155;52.364;6.580;2022-12-29T12:16:43;99995.53;;;8.77;100.00
60307;BME280;46155;52.364;6.580;2022-12-29T12:19:23;99991.34;;;8.81;100.00
60307;BME280;46155;52.364;6.580;2022-12-29T12:21:53;99991.19;;;8.78;100.00
60307;BME280;46155;52.364;6.580;2022-12-29T12:24:32;99996.19;;;8.73;100.00
60307;BME280;46155;52.364;6.580;2022-12-29T12:27:29;100001.59;;;8.76;100.00
60307;BME280;46155;52.364;6.580;2022-12-29T12:30:01;99999.78;;;8.75;100.00
60307;BME280;46155;52.364;6.580;2022-12-29T12:33:00;100013.59;;;8.73;100.00
60307;BME280;46155;52.364;6.580;2022-12-29T12:46:57;100013.94;;;8.79;100.00
60307;BME280;46155;52.364;6.580;2022-12-29T12:52:08;100022.53;;;8.76;100.00
60307;BME280;46155;52.364;6.580;2022-12-29T12:55:02;100025.78;;;8.72;100.00
60307;BME280;46155;52.364;6.580;2022-12-29T13:05:20;100026.66;;;8.73;100.00
60307;BME280;46155;52.364;6.580;2022-12-29T13:16:06;100044.34;;;8.77;100.00
60307;BME280;46155;52.364;6.580;2022-12-29T13:19:03;100034.97;;;8.81;100.00
60307;BME280;46155;52.364;6.580;2022-12-29T13:21:46;100048.94;;;8.81;100.00
60307;BME280;46155;52.364;6.580;2022-12-29T13:24:22;100051.72;;;8.84;100.00
60307;BME280;46155;52.364;6.580;2022-12-29T13:26:54;100060.75;;;8.89;100.00
60307;BME280;46155;52.364;6.580;2022-12-29T13:30:05;100072.81;;;8.87;100.00
60307;BME280;46155;52.364;6.580;2022-12-29T13:32:34;100066.88;;;8.90;100.00
60307;BME280;46155;52.364;6.580;2022-12-29T13:37:52;100082.41;;;8.87;100.00
60307;BME280;46155;52.364;6.580;2022-12-29T13:40:23;100086.84;;;8.88;100.00
60307;BME280;46155;52.364;6.580;2022-12-29T13:42:50;100071.53;;;8.79;100.00
60307;BME280;46155;52.364;6.580;2022-12-29T13:45:19;100086.28;;;8.93;100.00
60307;BME280;46155;52.364;6.580;2022-12-29T13:50:33;100097.31;;;8.88;100.00
60307;BME280;46155;52.364;6.580;2022-12-29T13:53:10;100092.16;;;8.89;100.00
60307;BME280;46155;52.364;6.580;2022-12-29T13:56:02;100102.78;;;8.92;100.00
60307;BME280;46155;52.364;6.580;2022-12-29T13:58:31;100099.13;;;8.89;100.00
60307;BME280;46155;52.364;6.580;2022-12-29T14:01:10;100099.84;;;8.86;100.00
60307;BME280;46155;52.364;6.580;2022-12-29T14:06:18;100104.22;;;8.87;100.00
60307;BME280;46155;52.364;6.580;2022-12-29T14:08:46;100113.97;;;8.90;100.00
60307;BME280;46155;52.364;6.580;2022-12-29T14:11:14;100109.66;;;8.90;100.00
60307;BME280;46155;52.364;6.580;2022-12-29T14:13:43;100105.41;;;8.92;100.00
60307;BME280;46155;52.364;6.580;2022-12-29T14:16:24;100101.06;;;8.93;100.00
60307;BME280;46155;52.364;6.580;2022-12-29T14:18:50;100107.38;;;8.96;100.00
60307;BME280;46155;52.364;6.580;2022-12-29T14:23:43;100109.19;;;8.98;100.00
60307;BME280;46155;52.364;6.580;2022-12-29T14:26:14;100119.84;;;9.01;100.00
60307;BME280;46155;52.364;6.580;2022-12-29T14:28:49;100111.66;;;8.94;100.00
60307;BME280;46155;52.364;6.580;2022-12-29T14:33:40;100116.69;;;8.91;100.00
60307;BME280;46155;52.364;6.580;2022-12-29T14:36:25;100121.91;;;8.91;100.00
60307;BME280;46155;52.364;6.580;2022-12-29T14:38:51;100126.09;;;8.88;100.00
60307;BME280;46155;52.364;6.580;2022-12-29T14:41:30;100113.47;;;8.81;100.00
60307;BME280;46155;52.364;6.580;2022-12-29T14:44:03;100122.31;;;8.83;100.00
60307;BME280;46155;52.364;6.580;2022-12-29T14:49:21;100127.03;;;8.73;100.00
60307;BME280;46155;52.364;6.580;2022-12-29T14:51:50;100129.56;;;8.72;100.00
60307;BME280;46155;52.364;6.580;2022-12-29T14:54:47;100131.19;;;8.70;100.00
60307;BME280;46155;52.364;6.580;2022-12-29T14:57:40;100129.03;;;8.63;100.00
60307;BME280;46155;52.364;6.580;2022-12-29T15:00:16;100141.13;;;8.60;100.00
60307;BME280;46155;52.364;6.580;2022-12-29T15:02:54;100138.78;;;8.65;100.00
60307;BME280;46155;52.364;6.580;2022-12-29T15:05:58;100144.72;;;8.63;100.00
60307;BME280;46155;52.364;6.580;2022-12-29T15:08:26;100146.34;;;8.60;100.00
60307;BME280;46155;52.364;6.580;2022-12-29T15:10:57;100148.78;;;8.57;100.00
60307;BME280;46155;52.364;6.580;2022-12-29T15:13:33;100132.09;;;8.55;100.00
60307;BME280;46155;52.364;6.580;2022-12-29T15:15:58;100141.56;;;8.53;100.00
60307;BME280;46155;52.364;6.580;2022-12-29T15:18:32;100142.22;;;8.49;100.00
60307;BME280;46155;52.364;6.580;2022-12-29T15:21:00;100150.88;;;8.48;100.00
60307;BME280;46155;52.364;6.580;2022-12-29T15:23:27;100157.16;;;8.52;100.00
60307;BME280;46155;52.364;6.580;2022-12-29T15:25:58;100159.88;;;8.53;100.00
60307;BME280;46155;52.364;6.580;2022-12-29T15:28:26;100154.63;;;8.53;100.00
60307;BME280;46155;52.364;6.580;2022-12-29T15:30:56;100168.38;;;8.49;100.00
60307;BME280;46155;52.364;6.580;2022-12-29T15:33:24;100160.53;;;8.49;100.00
60307;BME280;46155;52.364;6.580;2022-12-29T15:35:52;100177.03;;;8.48;100.00
60307;BME280;46155;52.364;6.580;2022-12-29T15:38:24;100177.03;;;8.48;100.00
60307;BME280;46155;52.364;6.580;2022-12-29T15:40:55;100171.88;;;8.50;100.00
60307;BME280;46155;52.364;6.580;2022-12-29T15:43:30;100170.31;;;8.38;100.00
60307;BME280;46155;52.364;6.580;2022-12-29T15:46:00;100186.41;;;8.44;100.00
60307;BME280;46155;52.364;6.580;2022-12-29T15:48:27;100184.38;;;8.40;100.00
60307;BME280;46155;52.364;6.580;2022-12-29T15:50:53;100184.81;;;8.33;100.00
60307;BME280;46155;52.364;6.580;2022-12-29T15:53:21;100190.06;;;8.18;100.00
60307;BME280;46155;52.364;6.580;2022-12-29T15:55:51;100188.84;;;8.13;100.00
60307;BME280;46155;52.364;6.580;2022-12-29T15:58:28;100187.66;;;8.08;100.00
60307;BME280;46155;52.364;6.580;2022-12-29T16:00:59;100187.31;;;8.02;100.00
60307;BME280;46155;52.364;6.580;2022-12-29T16:03:26;100187.31;;;8.02;100.00
60307;BME280;46155;52.364;6.580;2022-12-29T16:05:56;100181.81;;;7.97;100.00
60307;BME280;46155;52.364;6.580;2022-12-29T16:08:31;100193.06;;;7.96;100.00
60307;BME280;46155;52.364;6.580;2022-12-29T16:11:04;100176.91;;;7.88;100.00
60307;BME280;46155;52.364;6.580;2022-12-29T16:13:34;100191.97;;;7.92;100.00
60307;BME280;46155;52.364;6.580;2022-12-29T16:16:12;100194.59;;;7.92;100.00
60307;BME280;46155;52.364;6.580;2022-12-29T16:18:38;100192.97;;;7.95;100.00
60307;BME280;46155;52.364;6.580;2022-12-29T16:21:15;100188.63;;;7.95;100.00
60307;BME280;46155;52.364;6.580;2022-12-29T16:23:44;100184.16;;;7.92;100.00
60307;BME280;46155;52.364;6.580;2022-12-29T16:26:17;100184.16;;;7.92;100.00
60307;BME280;46155;52.364;6.580;2022-12-29T16:28:43;100194.59;;;7.92;100.00
60307;BME280;46155;52.364;6.580;2022-12-29T16:33:48;100198.19;;;7.95;100.00
60307;BME280;46155;52.364;6.580;2022-12-29T16:36:25;100200.00;;;7.96;100.00
60307;BME280;46155;52.364;6.580;2022-12-29T16:39:24;100198.81;;;7.90;100.00
60307;BME280;46155;52.364;6.580;2022-12-29T16:41:48;100187.56;;;7.91;100.00
60307;BME280;46155;52.364;6.580;2022-12-29T16:44:22;100204.41;;;7.97;100.00
60307;BME280;46155;52.364;6.580;2022-12-29T16:49:39;100189.81;;;8.00;100.00
60307;BME280;46155;52.364;6.580;2022-12-29T16:52:17;100198.78;;;8.04;100.00
60307;BME280;46155;52.364;6.580;2022-12-29T16:54:50;100190.81;;;8.02;100.00
60307;BME280;46155;52.364;6.580;2022-12-29T16:57:24;100200.56;;;8.05;100.00
60307;BME280;46155;52.364;6.580;2022-12-29T16:59:52;100206.63;;;8.04;100.00
60307;BME280;46155;52.364;6.580;2022-12-29T17:02:20;100194.06;;;7.98;100.00
60307;BME280;46155;52.364;6.580;2022-12-29T17:04:47;100207.69;;;8.07;100.00
60307;BME280;46155;52.364;6.580;2022-12-29T17:07:20;100216.41;;;8.08;100.00
60307;BME280;46155;52.364;6.580;2022-12-29T17:09:46;100222.47;;;8.07;100.00
60307;BME280;46155;52.364;6.580;2022-12-29T17:12:17;100222.47;;;8.07;100.00
60307;BME280;46155;52.364;6.580;2022-12-29T17:15:25;100224.09;;;8.05;100.00
60307;BME280;46155;52.364;6.580;2022-12-29T17:17:53;100235.56;;;8.07;100.00
60307;BME280;46155;52.364;6.580;2022-12-29T17:20:24;100236.44;;;8.07;100.00
60307;BME280;46155;52.364;6.580;2022-12-29T17:22:50;100227.41;;;8.02;100.00
60307;BME280;46155;52.364;6.580;2022-12-29T17:25:21;100229.41;;;8.06;100.00
60307;BME280;46155;52.364;6.580;2022-12-29T17:30:20;100242.78;;;8.11;100.00
60307;BME280;46155;52.364;6.580;2022-12-29T17:33:09;100248.53;;;8.05;100.00
60307;BME280;46155;52.364;6.580;2022-12-29T17:35:37;100258.25;;;8.08;100.00
60307;BME280;46155;52.364;6.580;2022-12-29T17:38:15;100254.66;;;8.06;100.00
60307;BME280;46155;52.364;6.580;2022-12-29T17:40:41;100258.91;;;8.04;100.00
60307;BME280;46155;52.364;6.580;2022-12-29T17:43:11;100253.34;;;7.99;100.00
60307;BME280;46155;52.364;6.580;2022-12-29T17:45:38;100263.28;;;8.05;100.00
60307;BME280;46155;52.364;6.580;2022-12-29T17:48:08;100265.72;;;8.02;100.00
60307;BME280;46155;52.364;6.580;2022-12-29T17:50:35;100271.84;;;8.02;100.00
60307;BME280;46155;52.364;6.580;2022-12-29T17:53:03;100268.34;;;8.02;100.00
60307;BME280;46155;52.364;6.580;2022-12-29T17:55:30;100262.84;;;7.97;100.00
60307;BME280;46155;52.364;6.580;2022-12-29T17:57:55;100271.47;;;7.96;100.00
60307;BME280;46155;52.364;6.580;2022-12-29T18:00:28;100283.75;;;7.97;100.00
60307;BME280;46155;52.364;6.580;2022-12-29T18:02:55;100273.00;;;7.92;100.00
60307;BME280;46155;52.364;6.580;2022-12-29T18:05:24;100284.72;;;7.99;100.00
60307;BME280;46155;52.364;6.580;2022-12-29T18:07:51;100296.28;;;8.03;100.00
60307;BME280;46155;52.364;6.580;2022-12-29T18:10:17;100298.13;;;8.04;100.00
60307;BME280;46155;52.364;6.580;2022-12-29T18:12:45;100304.13;;;8.03;100.00
60307;BME280;46155;52.364;6.580;2022-12-29T18:15:26;100312.59;;;7.99;100.00
60307;BME280;46155;52.364;6.580;2022-12-29T18:17:58;100298.41;;;7.95;100.00
60307;BME280;46155;52.364;6.580;2022-12-29T18:20:24;100305.06;;;7.90;100.00
60307;BME280;46155;52.364;6.580;2022-12-29T18:22:49;100312.00;;;7.89;100.00